Terminal Aerodrome Forecast
Issued by NWS

Home | Current Version | Previous Version | Text Only | Print | Product List | Glossary On
Versions: 1 2 3 4 5 6 7 8 9 10 11 12 13 14 15 16 17 18 19 20 21
000
FTUS45 KABQ 201700
TAFROW
TAF
KROW 201736Z 2018/2118 36006KT P6SM BKN015 BKN035
      TEMPO 2018/2020 SCT015
     FM202000 02010KT P6SM SCT015 BKN040
     FM210500 01007KT P6SM VCFG SCT004 OVC020
     FM211200 02007KT 4SM BR VCSH SCT003 OVC015=

USA.gov is the U.S. government's official web portal to all federal, state and local government web resources and services.